createdAt,value
2023-03-15T00:02:12.231Z,2.80
2023-03-15T00:04:41.750Z,4.77
2023-03-15T00:07:11.265Z,3.33
2023-03-15T00:09:39.342Z,3.83
2023-03-15T00:12:07.763Z,3.80
2023-03-15T00:14:35.726Z,1.87
2023-03-15T00:17:03.638Z,2.53
2023-03-15T00:19:31.665Z,4.97
2023-03-15T00:21:59.565Z,3.23
2023-03-15T00:24:28.827Z,5.17
2023-03-15T00:26:56.744Z,3.27
2023-03-15T00:29:24.699Z,3.67
2023-03-15T00:31:52.654Z,4.10
2023-03-15T00:34:26.531Z,4.93
2023-03-15T00:36:54.889Z,5.27
2023-03-15T00:39:25.665Z,4.27
2023-03-15T00:41:56.796Z,6.37
2023-03-15T00:44:26.329Z,5.43
2023-03-15T00:46:54.359Z,4.73
2023-03-15T00:49:22.439Z,7.90
2023-03-15T00:51:50.301Z,5.87
2023-03-15T00:54:18.276Z,5.40
2023-03-15T00:56:46.185Z,4.93
2023-03-15T00:59:15.684Z,5.13
2023-03-15T01:01:44.806Z,3.37
2023-03-15T01:04:12.981Z,6.83
2023-03-15T01:06:42.217Z,5.63
2023-03-15T01:09:10.380Z,4.77
2023-03-15T01:11:38.312Z,5.03
2023-03-15T01:14:08.754Z,5.53
2023-03-15T01:16:38.544Z,4.77
2023-03-15T01:19:06.725Z,5.00
2023-03-15T01:21:34.632Z,4.20
2023-03-15T01:24:02.647Z,3.97
2023-03-15T01:26:30.554Z,7.07
2023-03-15T01:28:58.867Z,3.83
2023-03-15T01:31:29.230Z,5.23
2023-03-15T01:34:00.775Z,5.03
2023-03-15T01:36:32.956Z,3.37
2023-03-15T01:39:00.913Z,4.77
2023-03-15T01:41:40.201Z,5.80
2023-03-15T01:44:14.768Z,5.80
2023-03-15T01:46:43.286Z,6.67
2023-03-15T01:49:24.420Z,6.17
2023-03-15T01:51:56.733Z,4.17
2023-03-15T01:54:30.662Z,5.37
2023-03-15T01:57:02.916Z,5.07
2023-03-15T01:59:36.620Z,6.10
2023-03-15T02:02:06.908Z,6.30
2023-03-15T02:04:40.162Z,5.97
2023-03-15T02:07:09.651Z,6.43
2023-03-15T02:09:45.214Z,6.07
2023-03-15T02:12:13.337Z,6.13
2023-03-15T02:14:43.965Z,6.40
2023-03-15T02:17:15.715Z,6.50
2023-03-15T02:19:56.442Z,7.50
2023-03-15T02:22:33.064Z,4.30
2023-03-15T02:25:07.892Z,4.63
2023-03-15T02:27:38.350Z,6.90
2023-03-15T02:30:08.086Z,6.87
2023-03-15T02:32:36.870Z,4.30
2023-03-15T02:35:05.614Z,3.83
2023-03-15T02:37:33.580Z,3.33
2023-03-15T02:40:01.605Z,5.07
2023-03-15T02:42:31.417Z,6.40
2023-03-15T02:45:00.811Z,5.57
2023-03-15T02:47:33.889Z,4.77
2023-03-15T02:50:02.053Z,4.77
2023-03-15T02:52:30.323Z,4.37
2023-03-15T02:54:58.275Z,3.60
2023-03-15T02:57:26.206Z,3.67
2023-03-15T02:59:56.875Z,3.80
2023-03-15T03:02:26.234Z,5.20
2023-03-15T03:04:54.136Z,4.60
2023-03-15T03:07:22.200Z,7.07
2023-03-15T03:09:55.610Z,7.20
2023-03-15T03:12:24.019Z,5.10
2023-03-15T03:14:51.994Z,5.10
2023-03-15T03:17:23.559Z,5.20
2023-03-15T03:19:53.436Z,7.03
2023-03-15T03:22:27.928Z,4.83
2023-03-15T03:24:56.113Z,3.20
2023-03-15T03:27:24.065Z,6.30
2023-03-15T03:29:52.500Z,4.70
2023-03-15T03:32:20.805Z,6.33
2023-03-15T03:34:49.297Z,4.83
2023-03-15T03:37:22.869Z,4.10
2023-03-15T03:39:56.773Z,3.27
2023-03-15T03:42:24.853Z,3.23
2023-03-15T03:44:54.373Z,2.93
2023-03-15T03:47:23.944Z,3.00
2023-03-15T03:49:53.473Z,2.80
2023-03-15T03:52:22.815Z,4.13
2023-03-15T03:54:53.149Z,3.43
2023-03-15T03:57:21.333Z,2.80
2023-03-15T03:59:49.975Z,4.37
2023-03-15T04:02:18.423Z,3.40
2023-03-15T04:04:56.797Z,4.50
2023-03-15T04:07:26.224Z,4.37
2023-03-15T04:09:54.720Z,4.00
2023-03-15T04:12:22.929Z,5.17
2023-03-15T04:14:54.407Z,4.30
2023-03-15T04:17:24.973Z,4.67
2023-03-15T04:19:53.094Z,5.17
2023-03-15T04:22:28.327Z,5.27
2023-03-15T04:25:17.524Z,5.73
2023-03-15T04:28:04.475Z,6.17
2023-03-15T04:30:52.729Z,5.67
2023-03-15T04:33:43.816Z,7.20
2023-03-15T04:36:30.622Z,7.67
2023-03-15T04:39:18.547Z,6.07
2023-03-15T04:41:46.468Z,6.53
2023-03-15T04:44:26.607Z,7.40
2023-03-15T04:47:13.070Z,5.87
2023-03-15T04:49:58.202Z,6.20
2023-03-15T04:52:46.390Z,7.37
2023-03-15T04:55:29.266Z,6.10
2023-03-15T04:58:14.747Z,8.57
2023-03-15T05:01:08.770Z,7.10
2023-03-15T05:03:56.371Z,5.97
2023-03-15T05:06:42.949Z,6.37
2023-03-15T05:09:29.569Z,4.63
2023-03-15T05:12:19.365Z,7.80
2023-03-15T05:14:59.609Z,7.20
2023-03-15T05:17:56.143Z,6.37
2023-03-15T05:20:35.811Z,5.80
2023-03-15T05:23:22.359Z,7.07
2023-03-15T05:26:10.545Z,6.93
2023-03-15T05:28:56.995Z,6.80
2023-03-15T05:31:54.149Z,9.87
2023-03-15T05:34:42.685Z,7.93
2023-03-15T05:37:40.371Z,6.63
2023-03-15T05:40:30.221Z,7.03
2023-03-15T05:43:15.235Z,6.27
2023-03-15T05:45:57.116Z,5.43
2023-03-15T05:48:38.517Z,7.97
2023-03-15T05:51:15.758Z,5.77
2023-03-15T05:54:06.551Z,6.03
2023-03-15T05:56:45.447Z,7.53
2023-03-15T05:59:42.634Z,7.30
2023-03-15T06:02:45.306Z,9.13
2023-03-15T06:05:31.859Z,7.23
2023-03-15T06:08:04.352Z,8.77
2023-03-15T06:10:34.437Z,9.37
2023-03-15T06:13:07.739Z,10.53
2023-03-15T06:15:35.859Z,10.17
2023-03-15T06:18:05.768Z,12.00
2023-03-15T06:20:34.119Z,10.53
2023-03-15T06:23:08.475Z,12.40
2023-03-15T06:25:47.662Z,12.87
2023-03-15T06:28:16.436Z,13.77
2023-03-15T06:30:50.898Z,17.47
2023-03-15T06:33:24.320Z,14.37
2023-03-15T06:35:52.908Z,15.83
2023-03-15T06:38:20.951Z,13.00
2023-03-15T06:40:49.811Z,17.80
2023-03-15T06:43:19.578Z,15.57
2023-03-15T06:45:48.112Z,15.43
2023-03-15T06:48:17.361Z,15.90
2023-03-15T06:50:47.885Z,17.10
2023-03-15T06:53:17.672Z,14.47
2023-03-15T06:55:45.936Z,16.57
2023-03-15T06:58:14.713Z,18.60
2023-03-15T07:00:42.803Z,15.97
2023-03-15T07:03:10.879Z,15.70
2023-03-15T07:05:38.967Z,18.80
2023-03-15T07:08:08.444Z,14.47
2023-03-15T07:10:36.479Z,16.73
2023-03-15T07:13:06.759Z,17.73
2023-03-15T07:15:36.813Z,15.97
2023-03-15T07:18:04.919Z,20.77
2023-03-15T07:20:33.017Z,19.67
2023-03-15T07:23:01.033Z,17.93
2023-03-15T07:25:30.470Z,20.90
2023-03-15T07:27:58.369Z,18.03
2023-03-15T07:30:26.328Z,16.90
2023-03-15T07:32:54.414Z,20.90
2023-03-15T07:35:22.334Z,17.60
2023-03-15T07:37:50.263Z,14.87
2023-03-15T07:40:18.530Z,12.10
2023-03-15T07:42:47.818Z,14.97
2023-03-15T07:45:15.971Z,13.87
2023-03-15T07:47:43.872Z,11.67
2023-03-15T07:50:16.462Z,6.50
2023-03-15T07:52:45.021Z,4.50
2023-03-15T07:55:12.939Z,3.30
2023-03-15T07:57:40.880Z,4.67
2023-03-15T08:00:13.560Z,6.33
2023-03-15T08:02:41.999Z,3.47
2023-03-15T08:05:10.241Z,4.73
2023-03-15T08:07:39.616Z,4.60
2023-03-15T08:10:08.550Z,4.70
2023-03-15T08:12:36.564Z,3.10
2023-03-15T08:15:04.804Z,4.50
2023-03-15T08:17:34.162Z,3.30
2023-03-15T08:20:05.813Z,4.50
2023-03-15T08:22:33.986Z,4.87
2023-03-15T08:25:01.920Z,4.57
2023-03-15T08:27:29.975Z,5.90
2023-03-15T08:29:58.073Z,3.93
2023-03-15T08:32:26.272Z,2.73
2023-03-15T08:34:55.792Z,3.43
2023-03-15T08:37:23.915Z,4.33
2023-03-15T08:39:57.924Z,3.00
2023-03-15T08:42:25.952Z,3.63
2023-03-15T08:44:53.896Z,3.90
2023-03-15T08:47:22.056Z,3.20
2023-03-15T08:49:50.074Z,3.83
2023-03-15T08:52:19.520Z,5.90
2023-03-15T08:54:47.394Z,3.90
2023-03-15T08:57:15.715Z,5.23
2023-03-15T08:59:43.585Z,5.73
2023-03-15T09:02:12.538Z,5.17
2023-03-15T09:04:40.547Z,4.37
2023-03-15T09:07:08.676Z,4.13
2023-03-15T09:09:37.951Z,4.23
2023-03-15T09:12:06.528Z,4.93
2023-03-15T09:14:34.502Z,3.50
2023-03-15T09:17:03.125Z,4.37
2023-03-15T09:19:32.098Z,4.03
2023-03-15T09:22:15.923Z,4.10
2023-03-15T09:24:50.455Z,4.60
2023-03-15T09:27:19.796Z,5.83
2023-03-15T09:29:47.662Z,3.77
2023-03-15T09:32:15.629Z,4.70
2023-03-15T09:34:43.640Z,4.77
2023-03-15T09:37:11.826Z,3.37
2023-03-15T09:39:39.726Z,3.13
2023-03-15T09:42:17.215Z,2.37
2023-03-15T09:44:48.184Z,3.17
2023-03-15T09:47:31.772Z,3.27
2023-03-15T09:50:06.215Z,4.70
2023-03-15T09:52:38.898Z,4.73
2023-03-15T09:55:12.921Z,4.07
2023-03-15T09:57:47.951Z,4.37
2023-03-15T10:00:21.042Z,2.60
2023-03-15T10:02:59.121Z,6.37
2023-03-15T10:05:35.942Z,3.60
2023-03-15T10:08:04.457Z,5.53
2023-03-15T10:10:37.171Z,2.53
2023-03-15T10:13:23.381Z,2.90
2023-03-15T10:16:06.814Z,3.40
2023-03-15T10:18:50.341Z,2.67
2023-03-15T10:21:30.759Z,2.83
2023-03-15T10:23:59.608Z,3.80
2023-03-15T10:26:32.696Z,4.00
2023-03-15T10:29:04.999Z,3.33
2023-03-15T10:31:47.559Z,3.00
2023-03-15T10:34:16.819Z,2.53
2023-03-15T10:36:50.275Z,4.17
2023-03-15T10:39:19.215Z,4.63
2023-03-15T10:41:49.296Z,4.20
2023-03-15T10:44:21.725Z,5.17
2023-03-15T10:47:16.064Z,3.43
2023-03-15T10:49:49.899Z,5.53
2023-03-15T10:52:35.589Z,5.20
2023-03-15T10:55:06.905Z,6.23
2023-03-15T10:57:40.445Z,3.70
2023-03-15T11:00:26.868Z,3.70
2023-03-15T11:03:05.044Z,2.73
2023-03-15T11:05:39.087Z,4.10
2023-03-15T11:08:13.326Z,6.33
2023-03-15T11:10:41.567Z,5.97
2023-03-15T11:13:14.986Z,4.13
2023-03-15T11:15:53.910Z,4.97
2023-03-15T11:18:27.840Z,6.13
2023-03-15T11:20:58.088Z,6.27
2023-03-15T11:23:28.031Z,5.13
2023-03-15T11:25:56.606Z,6.80
2023-03-15T11:28:28.249Z,5.33
2023-03-15T11:31:00.676Z,4.47
2023-03-15T11:33:38.818Z,4.30
2023-03-15T11:36:13.177Z,4.70
2023-03-15T11:38:44.165Z,2.97
2023-03-15T11:41:26.347Z,2.37
2023-03-15T11:44:02.366Z,2.63
2023-03-15T11:46:37.754Z,6.53
2023-03-15T11:49:13.792Z,5.73
2023-03-15T11:51:42.043Z,5.33
2023-03-15T11:54:14.628Z,4.70
2023-03-15T11:56:55.103Z,3.73
2023-03-15T11:59:27.756Z,6.70
2023-03-15T12:02:00.166Z,4.60
2023-03-15T12:04:46.843Z,3.93
2023-03-15T12:07:37.154Z,3.47
2023-03-15T12:10:39.875Z,2.63
2023-03-15T12:13:18.532Z,5.17
2023-03-15T12:15:49.152Z,2.77
2023-03-15T12:18:26.377Z,2.13
2023-03-15T12:21:07.388Z,4.87
2023-03-15T12:23:42.851Z,6.53
2023-03-15T12:26:18.337Z,3.97
2023-03-15T12:28:52.436Z,2.17
2023-03-15T12:31:21.362Z,2.50
2023-03-15T12:33:53.154Z,2.67
2023-03-15T12:36:32.232Z,3.47
2023-03-15T12:39:04.342Z,2.80
2023-03-15T12:41:40.875Z,5.33
2023-03-15T12:44:26.376Z,3.50
2023-03-15T12:46:56.802Z,3.50
2023-03-15T12:49:36.017Z,5.43
2023-03-15T12:52:06.657Z,3.30
2023-03-15T12:54:41.273Z,4.93
2023-03-15T12:57:12.068Z,4.93
2023-03-15T12:59:46.416Z,7.00
2023-03-15T13:02:42.177Z,3.60
2023-03-15T13:05:23.415Z,2.03
2023-03-15T13:08:08.717Z,3.50
2023-03-15T13:10:52.500Z,7.47
2023-03-15T13:13:34.762Z,4.93
2023-03-15T13:16:17.796Z,2.90
2023-03-15T13:18:54.035Z,3.63
2023-03-15T13:21:29.360Z,5.63
2023-03-15T13:23:59.922Z,3.20
2023-03-15T13:26:39.462Z,4.57
2023-03-15T13:29:14.207Z,2.63
2023-03-15T13:31:42.425Z,5.03
2023-03-15T13:34:16.705Z,3.53
2023-03-15T13:36:48.609Z,3.70
2023-03-15T13:39:23.116Z,4.83
2023-03-15T13:41:57.267Z,4.07
2023-03-15T13:44:26.386Z,7.00
2023-03-15T13:46:54.629Z,3.60
2023-03-15T13:49:22.953Z,4.57
2023-03-15T13:51:54.097Z,4.47
2023-03-15T13:54:26.827Z,5.83
2023-03-15T13:57:03.337Z,5.60
2023-03-15T13:59:34.269Z,3.87
2023-03-15T14:02:04.208Z,6.40
2023-03-15T14:04:36.494Z,4.90
2023-03-15T14:07:22.716Z,8.23
2023-03-15T14:10:07.717Z,3.27
2023-03-15T14:12:35.826Z,4.83
2023-03-15T14:15:03.843Z,8.33
2023-03-15T14:17:33.381Z,7.60
2023-03-15T14:20:09.114Z,4.40
2023-03-15T14:22:42.928Z,4.07
2023-03-15T14:25:22.153Z,5.53
2023-03-15T14:27:50.477Z,4.83
2023-03-15T14:30:20.920Z,6.53
2023-03-15T14:32:54.475Z,6.40
2023-03-15T14:35:25.046Z,7.33
2023-03-15T14:38:04.734Z,4.27
2023-03-15T14:40:35.607Z,5.40
2023-03-15T14:43:04.694Z,6.70
2023-03-15T14:45:34.163Z,4.47
2023-03-15T14:48:05.753Z,5.83
2023-03-15T14:50:37.617Z,7.47
2023-03-15T14:53:08.287Z,10.20
2023-03-15T14:55:38.301Z,9.50
2023-03-15T14:58:12.674Z,4.27
2023-03-15T15:00:41.349Z,8.00
2023-03-15T15:03:17.348Z,7.10
2023-03-15T15:05:46.053Z,5.20
2023-03-15T15:08:19.101Z,8.67
2023-03-15T15:10:49.316Z,6.73
2023-03-15T15:13:19.486Z,5.87
2023-03-15T15:15:55.575Z,7.63
2023-03-15T15:18:25.715Z,3.57
2023-03-15T15:20:55.823Z,6.53
2023-03-15T15:23:28.017Z,5.63
2023-03-15T15:25:58.499Z,4.03
2023-03-15T15:28:35.187Z,6.23
2023-03-15T15:31:03.807Z,9.40
2023-03-15T15:33:32.236Z,7.27
2023-03-15T15:36:00.306Z,8.93
2023-03-15T15:38:34.791Z,4.87
2023-03-15T15:41:02.870Z,5.03
2023-03-15T15:43:33.417Z,2.87
2023-03-15T15:46:01.776Z,5.37
2023-03-15T15:48:31.058Z,9.53
2023-03-15T15:50:59.269Z,5.13
2023-03-15T15:53:32.693Z,4.70
2023-03-15T15:56:00.779Z,7.17
2023-03-15T15:58:28.712Z,10.47
2023-03-15T16:00:57.913Z,4.83
2023-03-15T16:03:26.062Z,5.73
2023-03-15T16:05:54.035Z,5.47
2023-03-15T16:08:24.905Z,5.67
2023-03-15T16:10:54.357Z,6.57
2023-03-15T16:13:22.812Z,5.67
2023-03-15T16:15:50.902Z,5.00
2023-03-15T16:18:18.908Z,6.73
2023-03-15T16:20:47.003Z,8.97
2023-03-15T16:23:20.542Z,6.87
2023-03-15T16:25:50.819Z,5.43
2023-03-15T16:28:20.483Z,11.13
2023-03-15T16:30:48.511Z,7.67
2023-03-15T16:33:18.440Z,6.27
2023-03-15T16:35:48.530Z,7.37
2023-03-15T16:38:23.920Z,4.67
2023-03-15T16:40:53.255Z,6.93
2023-03-15T16:43:22.616Z,6.20
2023-03-15T16:45:50.618Z,6.37
2023-03-15T16:48:18.575Z,6.47
2023-03-15T16:50:48.136Z,7.93
2023-03-15T16:53:16.424Z,7.57
2023-03-15T16:55:44.512Z,5.00
2023-03-15T16:58:20.472Z,6.40
2023-03-15T17:00:49.835Z,7.50
2023-03-15T17:03:18.322Z,5.80
2023-03-15T17:05:47.822Z,7.60
2023-03-15T17:08:19.534Z,8.83
2023-03-15T17:10:47.634Z,2.63
2023-03-15T17:13:18.141Z,2.27
2023-03-15T17:15:46.230Z,8.33
2023-03-15T17:18:18.870Z,9.63
2023-03-15T17:20:47.752Z,4.67
2023-03-15T17:23:16.528Z,5.23
2023-03-15T17:25:44.819Z,7.97
2023-03-15T17:28:12.832Z,5.87
2023-03-15T17:30:40.947Z,6.13
2023-03-15T17:33:09.112Z,4.37
2023-03-15T17:35:41.632Z,6.47
2023-03-15T17:38:18.369Z,5.83
2023-03-15T17:40:47.014Z,7.90
2023-03-15T17:43:17.183Z,9.53
2023-03-15T17:45:45.479Z,6.87
2023-03-15T17:48:13.678Z,9.80
2023-03-15T17:50:44.438Z,4.93
2023-03-15T17:53:16.437Z,8.37
2023-03-15T17:55:45.501Z,8.20
2023-03-15T17:58:18.270Z,11.07
2023-03-15T18:00:47.868Z,8.17
2023-03-15T18:03:16.861Z,4.47
2023-03-15T18:05:47.265Z,6.90
2023-03-15T18:08:18.176Z,7.33
2023-03-15T18:10:47.642Z,8.10
2023-03-15T18:13:18.291Z,9.47
2023-03-15T18:15:47.089Z,4.60
2023-03-15T18:18:15.064Z,8.73
2023-03-15T18:20:45.142Z,6.73
2023-03-15T18:23:15.945Z,7.43
2023-03-15T18:25:44.299Z,7.70
2023-03-15T18:28:12.506Z,9.30
2023-03-15T18:30:40.806Z,7.33
2023-03-15T18:33:08.798Z,9.70
2023-03-15T18:35:37.580Z,5.97
2023-03-15T18:38:06.260Z,8.10
2023-03-15T18:40:35.779Z,12.30
2023-03-15T18:43:05.361Z,19.33
2023-03-15T18:45:35.729Z,20.70
2023-03-15T18:48:04.409Z,13.27
2023-03-15T18:50:33.456Z,11.30
2023-03-15T18:53:02.291Z,12.47
2023-03-15T18:55:30.931Z,8.47
2023-03-15T18:58:00.169Z,8.93
2023-03-15T19:00:31.470Z,8.30
2023-03-15T19:03:01.793Z,8.97
2023-03-15T19:05:31.773Z,7.03
2023-03-15T19:07:59.966Z,7.00
2023-03-15T19:10:28.399Z,8.97
2023-03-15T19:12:56.486Z,11.00
2023-03-15T19:15:25.778Z,9.97
2023-03-15T19:17:55.156Z,10.23
2023-03-15T19:20:24.634Z,8.37
2023-03-15T19:22:53.266Z,9.23
2023-03-15T19:25:22.016Z,8.13
2023-03-15T19:27:49.956Z,6.53
2023-03-15T19:30:22.355Z,11.37
2023-03-15T19:32:52.079Z,9.30
2023-03-15T19:35:21.574Z,10.67
2023-03-15T19:37:50.390Z,6.93
2023-03-15T19:40:19.935Z,6.67
2023-03-15T19:42:49.563Z,6.97
2023-03-15T19:45:18.465Z,5.97
2023-03-15T19:47:47.019Z,8.10
2023-03-15T19:50:17.085Z,6.17
2023-03-15T19:52:47.906Z,7.33
2023-03-15T19:55:17.649Z,8.90
2023-03-15T19:57:46.331Z,10.03
2023-03-15T20:00:16.272Z,8.53
2023-03-15T20:02:45.084Z,6.90
2023-03-15T20:05:15.885Z,10.97
2023-03-15T20:07:46.202Z,5.60
2023-03-15T20:10:15.311Z,6.53
2023-03-15T20:12:45.226Z,5.13
2023-03-15T20:15:15.285Z,6.33
2023-03-15T20:17:43.553Z,7.67
2023-03-15T20:20:13.844Z,12.60
2023-03-15T20:22:44.804Z,6.87
2023-03-15T20:25:14.847Z,5.67
2023-03-15T20:27:42.990Z,10.60
2023-03-15T20:30:13.253Z,9.40
2023-03-15T20:32:41.531Z,10.70
2023-03-15T20:35:10.234Z,9.20
2023-03-15T20:37:41.629Z,11.30
2023-03-15T20:40:12.483Z,9.03
2023-03-15T20:42:42.283Z,7.73
2023-03-15T20:45:12.846Z,9.73
2023-03-15T20:47:41.552Z,8.30
2023-03-15T20:50:11.432Z,8.00
2023-03-15T20:52:40.828Z,13.43
2023-03-15T20:55:09.596Z,11.17
2023-03-15T20:57:41.147Z,7.17
2023-03-15T21:00:18.091Z,7.43
2023-03-15T21:02:46.815Z,11.10
2023-03-15T21:05:16.073Z,10.90
2023-03-15T21:07:44.595Z,6.10
2023-03-15T21:10:14.657Z,5.03
2023-03-15T21:12:43.976Z,8.33
2023-03-15T21:15:17.257Z,10.03
2023-03-15T21:17:45.538Z,9.10
2023-03-15T21:20:15.525Z,11.53
2023-03-15T21:22:43.811Z,9.20
2023-03-15T21:25:13.190Z,8.10
2023-03-15T21:27:41.347Z,7.90
2023-03-15T21:30:13.830Z,9.83
2023-03-15T21:32:43.304Z,6.00
2023-03-15T21:35:11.940Z,11.30
2023-03-15T21:37:41.181Z,8.97
2023-03-15T21:40:10.457Z,10.63
2023-03-15T21:42:38.458Z,6.70
2023-03-15T21:45:08.099Z,9.13
2023-03-15T21:47:36.773Z,9.00
2023-03-15T21:50:07.143Z,10.47
2023-03-15T21:52:35.168Z,10.43
2023-03-15T21:55:03.299Z,9.37
2023-03-15T21:57:33.627Z,10.47
2023-03-15T22:00:01.616Z,9.93
2023-03-15T22:02:39.979Z,11.80
2023-03-15T22:05:11.027Z,8.40
2023-03-15T22:07:39.088Z,7.93
2023-03-15T22:10:09.550Z,8.67
2023-03-15T22:12:37.908Z,9.53
2023-03-15T22:15:07.569Z,12.50
2023-03-15T22:17:35.643Z,9.77
2023-03-15T22:20:07.799Z,10.20
2023-03-15T22:22:37.055Z,9.43
2023-03-15T22:25:05.288Z,9.53
2023-03-15T22:27:33.212Z,8.00
2023-03-15T22:30:01.169Z,8.37
2023-03-15T22:32:29.133Z,8.63
2023-03-15T22:34:57.096Z,11.40
2023-03-15T22:37:25.270Z,16.63
2023-03-15T22:39:54.661Z,8.33
2023-03-15T22:42:22.577Z,8.00
2023-03-15T22:44:50.719Z,9.67
2023-03-15T22:47:18.598Z,7.73
2023-03-15T22:49:46.579Z,11.33
2023-03-15T22:52:14.671Z,14.57
2023-03-15T22:54:43.416Z,8.10
2023-03-15T22:57:12.937Z,10.97
2023-03-15T22:59:40.915Z,11.43
2023-03-15T23:02:09.050Z,13.23
2023-03-15T23:04:37.104Z,10.00
2023-03-15T23:07:05.109Z,10.77
2023-03-15T23:09:33.151Z,13.80
2023-03-15T23:12:01.093Z,9.70
2023-03-15T23:14:30.414Z,5.00
2023-03-15T23:16:58.360Z,12.50
2023-03-15T23:19:26.398Z,10.43
2023-03-15T23:21:54.269Z,8.97
2023-03-15T23:24:24.595Z,4.47
2023-03-15T23:26:56.366Z,7.23
2023-03-15T23:29:24.489Z,10.23
2023-03-15T23:31:53.728Z,9.60
2023-03-15T23:34:23.420Z,10.47
2023-03-15T23:36:51.451Z,8.20
2023-03-15T23:39:19.989Z,15.57
2023-03-15T23:41:48.756Z,10.23
2023-03-15T23:44:16.919Z,6.80
2023-03-15T23:46:44.919Z,11.77
2023-03-15T23:49:14.224Z,13.13
2023-03-15T23:51:43.781Z,8.67
2023-03-15T23:54:12.411Z,9.27
2023-03-15T23:56:40.399Z,9.00
2023-03-15T23:59:08.266Z,6.03
